PWSweather.com
Personal Weather Stations
Station Observations

ChardChardGB

Lat: 50.877408, Lon: -2.94964741

Elevation: 341

Station Type: WS3083

http://www.merriott-astro.co.uk/weather/index.htm

High Low Average
Temperature 54.1°F12.3°C 47.8°F8.8°C 49.3°F9.6°C
Dew Point 45.0°F7.2°C 40.5°F4.7°C 42.8°F6.0°C
Winds 15.0 mph 24.1 kmh 6.0 mph 9.7 kmh 11.0 mph SSW17.7 kmh SSW
Wind Gusts 23.5 mph37.8 kmh 9.2 mph14.8 kmh 16.0 mph25.7 kmh
Humidity 82% 70% 78%
Pressure 29.42 in996.3 mb 29.28 in991.5 mb -
Precipitation 0.02 in0.5 mm - -
Hour Temp Dew Point Humidity Winds Wind Gusts Pressure Precip Precip Rate Daily Precip Total
12:00 AM 48.6°F9.2°C 40.7°F4.8°C 74% 11.3 mph S18.2 kmh S 19.0 mph30.6 kmh 29.31 in992.6 mb 0.00 in0.0 mm 0.00 in0.0 mm 0.00 in0.0 mm
12:10 AM 48.4°F9.1°C 40.5°F4.7°C 74% 7.6 mph SW12.2 kmh SW 11.4 mph18.3 kmh 29.31 in992.6 mb 0.00 in0.0 mm 0.00 in0.0 mm 0.00 in0.0 mm
12:20 AM 48.6°F9.2°C 41.0°F5.0°C 75% 10.4 mph SW16.7 kmh SW 15.2 mph24.5 kmh 29.31 in992.6 mb 0.00 in0.0 mm 0.00 in0.0 mm 0.00 in0.0 mm
12:30 AM 48.4°F9.1°C 40.8°F4.9°C 75% 9.9 mph S15.9 kmh S 13.0 mph20.9 kmh 29.31 in992.6 mb 0.00 in0.0 mm 0.00 in0.0 mm 0.00 in0.0 mm
12:40 AM 48.4°F9.1°C 40.8°F4.9°C 75% 11.1 mph SSW17.9 kmh SSW 16.8 mph27.0 kmh 29.31 in992.6 mb 0.00 in0.0 mm 0.00 in0.0 mm 0.00 in0.0 mm
12:50 AM 48.6°F9.2°C 41.0°F5.0°C 75% 12.5 mph SW20.1 kmh SW 16.8 mph27.0 kmh 29.31 in992.6 mb 0.00 in0.0 mm 0.00 in0.0 mm 0.00 in0.0 mm
01:00 AM 48.6°F9.2°C 41.0°F5.0°C 75% 12.7 mph SSW20.4 kmh SSW 16.8 mph27.0 kmh 29.31 in992.6 mb 0.00 in0.0 mm 0.00 in0.0 mm 0.00 in0.0 mm
01:10 AM 48.4°F9.1°C 40.8°F4.9°C 75% 9.8 mph SSW15.8 kmh SSW 13.6 mph21.9 kmh 29.32 in992.9 mb 0.00 in0.0 mm 0.00 in0.0 mm 0.00 in0.0 mm
01:20 AM 48.4°F9.1°C 40.8°F4.9°C 75% 9.9 mph SW15.9 kmh SW 13.0 mph20.9 kmh 29.31 in992.6 mb 0.00 in0.0 mm 0.00 in0.0 mm 0.00 in0.0 mm
01:30 AM 48.4°F9.1°C 40.8°F4.9°C 75% 10.0 mph SSW16.1 kmh SSW 14.5 mph23.3 kmh 29.32 in992.9 mb 0.00 in0.0 mm 0.00 in0.0 mm 0.00 in0.0 mm
01:40 AM 48.4°F9.1°C 40.8°F4.9°C 75% 9.1 mph SSW14.6 kmh SSW 12.1 mph19.5 kmh 29.31 in992.6 mb 0.00 in0.0 mm 0.00 in0.0 mm 0.00 in0.0 mm
01:50 AM 48.4°F9.1°C 41.2°F5.1°C 76% 9.8 mph SW15.8 kmh SW 14.5 mph23.3 kmh 29.31 in992.6 mb 0.00 in0.0 mm 0.00 in0.0 mm 0.00 in0.0 mm
02:00 AM 48.2°F9.0°C 41.3°F5.2°C 77% 8.4 mph SSW13.5 kmh SSW 16.8 mph27.0 kmh 29.32 in992.9 mb 0.00 in0.0 mm 0.00 in0.0 mm 0.00 in0.0 mm
02:10 AM 48.0°F8.9°C 41.5°F5.3°C 78% 9.1 mph SSW14.6 kmh SSW 15.9 mph25.6 kmh 29.31 in992.6 mb 0.00 in0.0 mm 0.00 in0.0 mm 0.00 in0.0 mm
02:20 AM 48.0°F8.9°C 41.8°F5.4°C 79% 8.3 mph SW13.4 kmh SW 13.6 mph21.9 kmh 29.30 in992.2 mb 0.00 in0.0 mm 0.00 in0.0 mm 0.00 in0.0 mm
02:30 AM 48.0°F8.9°C 42.2°F5.7°C 80% 9.6 mph SW15.4 kmh SW 14.5 mph23.3 kmh 29.29 in991.9 mb 0.00 in0.0 mm 0.00 in0.0 mm 0.00 in0.0 mm
02:40 AM 48.2°F9.0°C 42.3°F5.7°C 80% 10.7 mph SW17.2 kmh SW 13.0 mph20.9 kmh 29.29 in991.9 mb 0.00 in0.0 mm 0.00 in0.0 mm 0.00 in0.0 mm
02:50 AM 48.0°F8.9°C 42.2°F5.7°C 80% 9.7 mph SSW15.6 kmh SSW 13.0 mph20.9 kmh 29.29 in991.9 mb 0.00 in0.0 mm 0.00 in0.0 mm 0.00 in0.0 mm
03:00 AM 48.0°F8.9°C 42.5°F5.8°C 81% 10.3 mph S16.6 kmh S 13.6 mph21.9 kmh 29.29 in991.9 mb 0.01 in0.3 mm 0.01 in0.3 mm 0.01 in0.3 mm
03:10 AM 48.0°F8.9°C 42.5°F5.8°C 81% 6.7 mph S10.8 kmh S 13.6 mph21.9 kmh 29.29 in991.9 mb 0.01 in0.3 mm 0.00 in0.0 mm 0.01 in0.3 mm
03:20 AM 48.0°F8.9°C 42.5°F5.8°C 81% 6.0 mph SW9.7 kmh SW 11.4 mph18.3 kmh 29.29 in991.9 mb 0.01 in0.3 mm 0.00 in0.0 mm 0.01 in0.3 mm
03:30 AM 47.8°F8.8°C 42.6°F5.9°C 82% 6.3 mph SSW10.1 kmh SSW 11.4 mph18.3 kmh 29.29 in991.9 mb 0.01 in0.3 mm 0.00 in0.0 mm 0.01 in0.3 mm
03:40 AM 48.0°F8.9°C 42.8°F6.0°C 82% 7.9 mph S12.7 kmh S 9.8 mph15.8 kmh 29.29 in991.9 mb 0.01 in0.3 mm 0.00 in0.0 mm 0.01 in0.3 mm
03:50 AM 48.0°F8.9°C 42.8°F6.0°C 82% 7.3 mph SSW11.7 kmh SSW 10.7 mph17.2 kmh 29.29 in991.9 mb 0.01 in0.3 mm 0.00 in0.0 mm 0.01 in0.3 mm
04:00 AM 47.8°F8.8°C 42.6°F5.9°C 82% 10.6 mph S17.1 kmh S 19.0 mph30.6 kmh 29.29 in991.9 mb 0.01 in0.3 mm 0.00 in0.0 mm 0.02 in0.5 mm
04:10 AM 47.8°F8.8°C 42.6°F5.9°C 82% 11.2 mph SW18.0 kmh SW 15.9 mph25.6 kmh 29.29 in991.9 mb 0.01 in0.3 mm 0.00 in0.0 mm 0.02 in0.5 mm
04:20 AM 47.8°F8.8°C 42.6°F5.9°C 82% 9.4 mph S15.1 kmh S 13.6 mph21.9 kmh 29.29 in991.9 mb 0.01 in0.3 mm 0.00 in0.0 mm 0.02 in0.5 mm
04:30 AM 48.0°F8.9°C 42.8°F6.0°C 82% 10.7 mph SSW17.2 kmh SSW 15.2 mph24.5 kmh 29.29 in991.9 mb 0.01 in0.3 mm 0.00 in0.0 mm 0.02 in0.5 mm
04:40 AM 48.2°F9.0°C 43.0°F6.1°C 82% 10.6 mph SW17.1 kmh SW 13.6 mph21.9 kmh 29.30 in992.2 mb 0.01 in0.3 mm 0.00 in0.0 mm 0.02 in0.5 mm
04:50 AM 48.2°F9.0°C 43.0°F6.1°C 82% 10.6 mph SW17.1 kmh SW 13.6 mph21.9 kmh 29.29 in991.9 mb 0.01 in0.3 mm 0.00 in0.0 mm 0.02 in0.5 mm
05:00 AM 48.2°F9.0°C 43.0°F6.1°C 82% 8.0 mph SW12.9 kmh SW 13.6 mph21.9 kmh 29.28 in991.5 mb 0.00 in0.0 mm 0.00 in0.0 mm 0.02 in0.5 mm
05:10 AM 48.2°F9.0°C 43.0°F6.1°C 82% 10.5 mph WSW16.9 kmh WSW 18.3 mph29.5 kmh 29.29 in991.9 mb 0.00 in0.0 mm 0.00 in0.0 mm 0.02 in0.5 mm
05:20 AM 48.2°F9.0°C 43.0°F6.1°C 82% 10.4 mph SSW16.7 kmh SSW 16.8 mph27.0 kmh 29.29 in991.9 mb 0.00 in0.0 mm 0.00 in0.0 mm 0.02 in0.5 mm
05:30 AM 48.2°F9.0°C 43.0°F6.1°C 82% 8.4 mph SSW13.5 kmh SSW 13.0 mph20.9 kmh 29.29 in991.9 mb 0.00 in0.0 mm 0.00 in0.0 mm 0.02 in0.5 mm
05:40 AM 48.2°F9.0°C 43.0°F6.1°C 82% 8.4 mph SSW13.5 kmh SSW 12.1 mph19.5 kmh 29.29 in991.9 mb 0.00 in0.0 mm 0.00 in0.0 mm 0.02 in0.5 mm
05:50 AM 48.4°F9.1°C 43.1°F6.2°C 82% 8.6 mph SSW13.8 kmh SSW 12.1 mph19.5 kmh 29.29 in991.9 mb 0.00 in0.0 mm 0.00 in0.0 mm 0.02 in0.5 mm
06:00 AM 48.4°F9.1°C 43.1°F6.2°C 82% 10.4 mph SSW16.7 kmh SSW 13.0 mph20.9 kmh 29.28 in991.5 mb 0.00 in0.0 mm 0.00 in0.0 mm 0.02 in0.5 mm
06:10 AM 48.2°F9.0°C 42.6°F5.9°C 81% 9.9 mph S15.9 kmh S 13.0 mph20.9 kmh 29.29 in991.9 mb 0.00 in0.0 mm 0.00 in0.0 mm 0.02 in0.5 mm
06:20 AM 48.2°F9.0°C 42.6°F5.9°C 81% 10.9 mph S17.5 kmh S 16.8 mph27.0 kmh 29.28 in991.5 mb 0.00 in0.0 mm 0.00 in0.0 mm 0.02 in0.5 mm
06:30 AM 48.2°F9.0°C 42.6°F5.9°C 81% 9.8 mph SSW15.8 kmh SSW 16.8 mph27.0 kmh 29.29 in991.9 mb 0.00 in0.0 mm 0.00 in0.0 mm 0.02 in0.5 mm
06:40 AM 48.2°F9.0°C 42.6°F5.9°C 81% 10.9 mph SW17.5 kmh SW 14.5 mph23.3 kmh 29.29 in991.9 mb 0.00 in0.0 mm 0.00 in0.0 mm 0.02 in0.5 mm
06:50 AM 48.4°F9.1°C 42.8°F6.0°C 81% 9.0 mph SSW14.5 kmh SSW 13.0 mph20.9 kmh 29.30 in992.2 mb 0.00 in0.0 mm 0.00 in0.0 mm 0.02 in0.5 mm
07:00 AM 48.2°F9.0°C 42.3°F5.7°C 80% 8.0 mph S12.9 kmh S 15.2 mph24.5 kmh 29.30 in992.2 mb 0.00 in0.0 mm 0.00 in0.0 mm 0.02 in0.5 mm
07:10 AM 48.0°F8.9°C 42.2°F5.7°C 80% 6.9 mph SSW11.1 kmh SSW 9.2 mph14.8 kmh 29.30 in992.2 mb 0.00 in0.0 mm 0.00 in0.0 mm 0.02 in0.5 mm
07:20 AM 48.2°F9.0°C 42.3°F5.7°C 80% 9.9 mph SSW15.9 kmh SSW 13.6 mph21.9 kmh 29.31 in992.6 mb 0.00 in0.0 mm 0.00 in0.0 mm 0.02 in0.5 mm
07:30 AM 48.2°F9.0°C 42.3°F5.7°C 80% 7.2 mph S11.6 kmh S 12.1 mph19.5 kmh 29.32 in992.9 mb 0.00 in0.0 mm 0.00 in0.0 mm 0.02 in0.5 mm
07:40 AM 48.2°F9.0°C 42.3°F5.7°C 80% 6.6 mph SW10.6 kmh SW 9.8 mph15.8 kmh 29.31 in992.6 mb 0.00 in0.0 mm 0.00 in0.0 mm 0.02 in0.5 mm
07:50 AM 48.4°F9.1°C 42.5°F5.8°C 80% 8.7 mph SSW14.0 kmh SSW 14.5 mph23.3 kmh 29.32 in992.9 mb 0.00 in0.0 mm 0.00 in0.0 mm 0.02 in0.5 mm
08:00 AM 48.4°F9.1°C 42.5°F5.8°C 80% 9.5 mph S15.3 kmh S 14.5 mph23.3 kmh 29.32 in992.9 mb 0.00 in0.0 mm 0.00 in0.0 mm 0.02 in0.5 mm
08:10 AM 48.7°F9.3°C 42.9°F6.1°C 80% 11.9 mph S19.2 kmh S 15.9 mph25.6 kmh 29.32 in992.9 mb 0.00 in0.0 mm 0.00 in0.0 mm 0.02 in0.5 mm
08:20 AM 48.9°F9.4°C 43.4°F6.3°C 81% 12.6 mph SSW20.3 kmh SSW 14.5 mph23.3 kmh 29.32 in992.9 mb 0.00 in0.0 mm 0.00 in0.0 mm 0.02 in0.5 mm
08:30 AM 49.1°F9.5°C 43.2°F6.2°C 80% 10.0 mph SSW16.1 kmh SSW 12.1 mph19.5 kmh 29.33 in993.2 mb 0.00 in0.0 mm 0.00 in0.0 mm 0.02 in0.5 mm
08:40 AM 48.9°F9.4°C 43.0°F6.1°C 80% 7.1 mph SW11.4 kmh SW 12.1 mph19.5 kmh 29.34 in993.6 mb 0.00 in0.0 mm 0.00 in0.0 mm 0.02 in0.5 mm
08:50 AM 48.9°F9.4°C 43.0°F6.1°C 80% 8.4 mph SE13.5 kmh SE 13.6 mph21.9 kmh 29.33 in993.2 mb 0.00 in0.0 mm 0.00 in0.0 mm 0.02 in0.5 mm
09:00 AM 48.9°F9.4°C 43.0°F6.1°C 80% 7.1 mph SSW11.4 kmh SSW 10.7 mph17.2 kmh 29.34 in993.6 mb 0.00 in0.0 mm 0.00 in0.0 mm 0.02 in0.5 mm
09:10 AM 48.9°F9.4°C 43.0°F6.1°C 80% 11.0 mph SSE17.7 kmh SSE 15.2 mph24.5 kmh 29.34 in993.6 mb 0.00 in0.0 mm 0.00 in0.0 mm 0.02 in0.5 mm
09:20 AM 49.1°F9.5°C 43.2°F6.2°C 80% 10.9 mph S17.5 kmh S 15.2 mph24.5 kmh 29.34 in993.6 mb 0.00 in0.0 mm 0.00 in0.0 mm 0.02 in0.5 mm
09:30 AM 49.3°F9.6°C 43.4°F6.3°C 80% 11.6 mph SSW18.7 kmh SSW 15.2 mph24.5 kmh 29.34 in993.6 mb 0.00 in0.0 mm 0.00 in0.0 mm 0.02 in0.5 mm
09:40 AM 49.6°F9.8°C 43.7°F6.5°C 80% 11.4 mph SSW18.3 kmh SSW 17.4 mph28.0 kmh 29.34 in993.6 mb 0.00 in0.0 mm 0.00 in0.0 mm 0.02 in0.5 mm
09:50 AM 50.0°F10.0°C 43.8°F6.6°C 79% 10.0 mph S16.1 kmh S 13.6 mph21.9 kmh 29.34 in993.6 mb 0.00 in0.0 mm 0.00 in0.0 mm 0.02 in0.5 mm
10:00 AM 50.0°F10.0°C 43.4°F6.3°C 78% 11.3 mph S18.2 kmh S 15.2 mph24.5 kmh 29.34 in993.6 mb 0.00 in0.0 mm 0.00 in0.0 mm 0.02 in0.5 mm
10:10 AM 50.2°F10.1°C 43.3°F6.3°C 77% 11.8 mph S19.0 kmh S 15.2 mph24.5 kmh 29.34 in993.6 mb 0.00 in0.0 mm 0.00 in0.0 mm 0.02 in0.5 mm
10:20 AM 51.8°F11.0°C 44.8°F7.1°C 77% 8.9 mph SSW14.3 kmh SSW 13.6 mph21.9 kmh 29.35 in993.9 mb 0.00 in0.0 mm 0.00 in0.0 mm 0.02 in0.5 mm
10:30 AM 54.1°F12.3°C 45.0°F7.2°C 71% 13.6 mph S21.9 kmh S 19.7 mph31.7 kmh 29.35 in993.9 mb 0.00 in0.0 mm 0.00 in0.0 mm 0.02 in0.5 mm
10:40 AM 54.0°F12.2°C 44.4°F6.9°C 70% 14.1 mph SW22.7 kmh SW 19.0 mph30.6 kmh 29.35 in993.9 mb 0.00 in0.0 mm 0.00 in0.0 mm 0.02 in0.5 mm
10:50 AM 53.2°F11.8°C 43.7°F6.5°C 70% 11.1 mph S17.9 kmh S 18.3 mph29.5 kmh 29.35 in993.9 mb 0.00 in0.0 mm 0.00 in0.0 mm 0.02 in0.5 mm
11:00 AM 51.8°F11.0°C 43.1°F6.2°C 72% 13.1 mph SW21.1 kmh SW 18.3 mph29.5 kmh 29.36 in994.2 mb 0.00 in0.0 mm 0.00 in0.0 mm 0.02 in0.5 mm
11:10 AM 51.6°F10.9°C 43.3°F6.3°C 73% 13.4 mph S21.6 kmh S 16.8 mph27.0 kmh 29.36 in994.2 mb 0.00 in0.0 mm 0.00 in0.0 mm 0.02 in0.5 mm
11:20 AM 51.6°F10.9°C 43.3°F6.3°C 73% 14.1 mph SW22.7 kmh SW 23.5 mph37.8 kmh 29.36 in994.2 mb 0.00 in0.0 mm 0.00 in0.0 mm 0.02 in0.5 mm
11:30 AM 51.8°F11.0°C 43.4°F6.3°C 73% 14.6 mph SW23.5 kmh SW 23.5 mph37.8 kmh 29.36 in994.2 mb 0.00 in0.0 mm 0.00 in0.0 mm 0.02 in0.5 mm
11:40 AM 50.9°F10.5°C 42.6°F5.9°C 73% 13.5 mph S21.7 kmh S 16.8 mph27.0 kmh 29.36 in994.2 mb 0.00 in0.0 mm 0.00 in0.0 mm 0.02 in0.5 mm
11:50 AM 50.4°F10.2°C 42.7°F5.9°C 75% 12.9 mph SSW20.8 kmh SSW 15.2 mph24.5 kmh 29.36 in994.2 mb 0.00 in0.0 mm 0.00 in0.0 mm 0.02 in0.5 mm
12:00 PM 50.0°F10.0°C 43.1°F6.2°C 77% 11.5 mph SW18.5 kmh SW 15.2 mph24.5 kmh 29.36 in994.2 mb 0.00 in0.0 mm 0.00 in0.0 mm 0.02 in0.5 mm
12:10 PM 50.5°F10.3°C 43.9°F6.6°C 78% 12.7 mph S20.4 kmh S 15.9 mph25.6 kmh 29.36 in994.2 mb 0.00 in0.0 mm 0.00 in0.0 mm 0.02 in0.5 mm
12:20 PM 50.9°F10.5°C 44.0°F6.7°C 77% 12.8 mph SSW20.6 kmh SSW 16.8 mph27.0 kmh 29.36 in994.2 mb 0.00 in0.0 mm 0.00 in0.0 mm 0.02 in0.5 mm
12:30 PM 51.1°F10.6°C 43.4°F6.3°C 75% 10.2 mph S16.4 kmh S 18.3 mph29.5 kmh 29.37 in994.6 mb 0.00 in0.0 mm 0.00 in0.0 mm 0.02 in0.5 mm
12:40 PM 50.5°F10.3°C 42.9°F6.1°C 75% 13.0 mph S20.9 kmh S 15.9 mph25.6 kmh 29.36 in994.2 mb 0.00 in0.0 mm 0.00 in0.0 mm 0.02 in0.5 mm
12:50 PM 50.9°F10.5°C 43.3°F6.3°C 75% 14.4 mph SSW23.2 kmh SSW 20.6 mph33.2 kmh 29.36 in994.2 mb 0.00 in0.0 mm 0.00 in0.0 mm 0.02 in0.5 mm
01:00 PM 51.3°F10.7°C 43.6°F6.4°C 75% 12.7 mph SW20.4 kmh SW 19.7 mph31.7 kmh 29.36 in994.2 mb 0.00 in0.0 mm 0.00 in0.0 mm 0.02 in0.5 mm
01:10 PM 51.1°F10.6°C 43.1°F6.2°C 74% 14.5 mph SSW23.3 kmh SSW 22.1 mph35.6 kmh 29.36 in994.2 mb 0.00 in0.0 mm 0.00 in0.0 mm 0.02 in0.5 mm
01:20 PM 50.5°F10.3°C 42.9°F6.1°C 75% 12.9 mph SW20.8 kmh SW 20.6 mph33.2 kmh 29.36 in994.2 mb 0.00 in0.0 mm 0.00 in0.0 mm 0.02 in0.5 mm
01:30 PM 50.2°F10.1°C 42.6°F5.9°C 75% 14.6 mph SSW23.5 kmh SSW 19.7 mph31.7 kmh 29.37 in994.6 mb 0.00 in0.0 mm 0.00 in0.0 mm 0.02 in0.5 mm
01:40 PM 50.2°F10.1°C 42.6°F5.9°C 75% 15.0 mph S24.1 kmh S 20.6 mph33.2 kmh 29.37 in994.6 mb 0.00 in0.0 mm 0.00 in0.0 mm 0.02 in0.5 mm
01:50 PM 50.4°F10.2°C 42.7°F5.9°C 75% 12.0 mph SW19.3 kmh SW 19.7 mph31.7 kmh 29.37 in994.6 mb 0.00 in0.0 mm 0.00 in0.0 mm 0.02 in0.5 mm
02:00 PM 50.4°F10.2°C 42.7°F5.9°C 75% 11.8 mph SSW19.0 kmh SSW 20.6 mph33.2 kmh 29.36 in994.2 mb 0.00 in0.0 mm 0.00 in0.0 mm 0.02 in0.5 mm
02:10 PM 50.0°F10.0°C 42.4°F5.8°C 75% 12.8 mph SSW20.6 kmh SSW 17.4 mph28.0 kmh 29.36 in994.2 mb 0.00 in0.0 mm 0.00 in0.0 mm 0.02 in0.5 mm
02:20 PM 50.2°F10.1°C 42.9°F6.1°C 76% 13.7 mph S22.0 kmh S 17.4 mph28.0 kmh 29.37 in994.6 mb 0.00 in0.0 mm 0.00 in0.0 mm 0.02 in0.5 mm
02:30 PM 50.2°F10.1°C 42.9°F6.1°C 76% 12.7 mph SSW20.4 kmh SSW 19.0 mph30.6 kmh 29.36 in994.2 mb 0.00 in0.0 mm 0.00 in0.0 mm 0.02 in0.5 mm
02:40 PM 50.2°F10.1°C 43.3°F6.3°C 77% 11.4 mph SW18.3 kmh SW 15.9 mph25.6 kmh 29.37 in994.6 mb 0.00 in0.0 mm 0.00 in0.0 mm 0.02 in0.5 mm
02:50 PM 50.0°F10.0°C 42.7°F5.9°C 76% 12.0 mph S19.3 kmh S 21.3 mph34.3 kmh 29.37 in994.6 mb 0.00 in0.0 mm 0.00 in0.0 mm 0.02 in0.5 mm
03:00 PM 49.8°F9.9°C 42.9°F6.1°C 77% 10.4 mph SW16.7 kmh SW 15.2 mph24.5 kmh 29.36 in994.2 mb 0.00 in0.0 mm 0.00 in0.0 mm 0.02 in0.5 mm
03:10 PM 49.8°F9.9°C 42.9°F6.1°C 77% 11.9 mph SW19.2 kmh SW 17.4 mph28.0 kmh 29.37 in994.6 mb 0.00 in0.0 mm 0.00 in0.0 mm 0.02 in0.5 mm
03:20 PM 49.8°F9.9°C 43.2°F6.2°C 78% 11.1 mph SSW17.9 kmh SSW 15.9 mph25.6 kmh 29.37 in994.6 mb 0.00 in0.0 mm 0.00 in0.0 mm 0.02 in0.5 mm
03:30 PM 49.8°F9.9°C 42.9°F6.1°C 77% 11.1 mph S17.9 kmh S 13.6 mph21.9 kmh 29.36 in994.2 mb 0.00 in0.0 mm 0.00 in0.0 mm 0.02 in0.5 mm
03:40 PM 50.0°F10.0°C 43.1°F6.2°C 77% 9.8 mph SW15.8 kmh SW 15.9 mph25.6 kmh 29.36 in994.2 mb 0.00 in0.0 mm 0.00 in0.0 mm 0.02 in0.5 mm
03:50 PM 49.8°F9.9°C 42.9°F6.1°C 77% 9.1 mph S14.6 kmh S 12.1 mph19.5 kmh 29.36 in994.2 mb 0.00 in0.0 mm 0.00 in0.0 mm 0.02 in0.5 mm
04:00 PM 49.8°F9.9°C 43.2°F6.2°C 78% 9.8 mph SW15.8 kmh SW 15.9 mph25.6 kmh 29.36 in994.2 mb 0.00 in0.0 mm 0.00 in0.0 mm 0.02 in0.5 mm
04:10 PM 49.8°F9.9°C 43.2°F6.2°C 78% 10.5 mph SSW16.9 kmh SSW 15.2 mph24.5 kmh 29.36 in994.2 mb 0.00 in0.0 mm 0.00 in0.0 mm 0.02 in0.5 mm
04:20 PM 49.8°F9.9°C 43.2°F6.2°C 78% 9.8 mph S15.8 kmh S 14.5 mph23.3 kmh 29.36 in994.2 mb 0.00 in0.0 mm 0.00 in0.0 mm 0.02 in0.5 mm
04:30 PM 49.8°F9.9°C 43.2°F6.2°C 78% 11.3 mph SSW18.2 kmh SSW 16.8 mph27.0 kmh 29.36 in994.2 mb 0.00 in0.0 mm 0.00 in0.0 mm 0.02 in0.5 mm
04:40 PM 49.8°F9.9°C 43.2°F6.2°C 78% 11.7 mph SSW18.8 kmh SSW 14.5 mph23.3 kmh 29.36 in994.2 mb 0.00 in0.0 mm 0.00 in0.0 mm 0.02 in0.5 mm
04:50 PM 49.8°F9.9°C 43.2°F6.2°C 78% 13.7 mph SW22.0 kmh SW 19.7 mph31.7 kmh 29.36 in994.2 mb 0.00 in0.0 mm 0.00 in0.0 mm 0.02 in0.5 mm
05:00 PM 49.8°F9.9°C 43.2°F6.2°C 78% 10.4 mph SW16.7 kmh SW 13.6 mph21.9 kmh 29.36 in994.2 mb 0.00 in0.0 mm 0.00 in0.0 mm 0.02 in0.5 mm
05:10 PM 49.8°F9.9°C 43.2°F6.2°C 78% 11.0 mph S17.7 kmh S 14.5 mph23.3 kmh 29.36 in994.2 mb 0.00 in0.0 mm 0.00 in0.0 mm 0.02 in0.5 mm
05:20 PM 49.8°F9.9°C 43.2°F6.2°C 78% 11.3 mph S18.2 kmh S 15.2 mph24.5 kmh 29.35 in993.9 mb 0.00 in0.0 mm 0.00 in0.0 mm 0.02 in0.5 mm
05:30 PM 49.6°F9.8°C 43.1°F6.2°C 78% 10.5 mph SSW16.9 kmh SSW 13.6 mph21.9 kmh 29.36 in994.2 mb 0.00 in0.0 mm 0.00 in0.0 mm 0.02 in0.5 mm
05:40 PM 49.6°F9.8°C 43.1°F6.2°C 78% 12.5 mph SSW20.1 kmh SSW 15.2 mph24.5 kmh 29.36 in994.2 mb 0.00 in0.0 mm 0.00 in0.0 mm 0.02 in0.5 mm
05:50 PM 49.6°F9.8°C 43.1°F6.2°C 78% 12.9 mph SSW20.8 kmh SSW 19.0 mph30.6 kmh 29.36 in994.2 mb 0.00 in0.0 mm 0.00 in0.0 mm 0.02 in0.5 mm
06:00 PM 49.6°F9.8°C 43.1°F6.2°C 78% 13.0 mph S20.9 kmh S 19.7 mph31.7 kmh 29.36 in994.2 mb 0.00 in0.0 mm 0.00 in0.0 mm 0.02 in0.5 mm
06:10 PM 49.6°F9.8°C 43.4°F6.3°C 79% 9.2 mph SSW14.8 kmh SSW 13.6 mph21.9 kmh 29.37 in994.6 mb 0.00 in0.0 mm 0.00 in0.0 mm 0.02 in0.5 mm
06:20 PM 49.6°F9.8°C 43.4°F6.3°C 79% 8.9 mph SW14.3 kmh SW 13.6 mph21.9 kmh 29.38 in994.9 mb 0.00 in0.0 mm 0.00 in0.0 mm 0.02 in0.5 mm
06:30 PM 49.5°F9.7°C 43.2°F6.2°C 79% 9.6 mph S15.4 kmh S 13.0 mph20.9 kmh 29.38 in994.9 mb 0.00 in0.0 mm 0.00 in0.0 mm 0.02 in0.5 mm
06:40 PM 49.5°F9.7°C 43.2°F6.2°C 79% 8.4 mph SW13.5 kmh SW 11.4 mph18.3 kmh 29.39 in995.3 mb 0.00 in0.0 mm 0.00 in0.0 mm 0.02 in0.5 mm
06:50 PM 49.5°F9.7°C 43.2°F6.2°C 79% 11.0 mph SSW17.7 kmh SSW 13.6 mph21.9 kmh 29.39 in995.3 mb 0.00 in0.0 mm 0.00 in0.0 mm 0.02 in0.5 mm
07:00 PM 49.5°F9.7°C 43.2°F6.2°C 79% 11.4 mph S18.3 kmh S 16.8 mph27.0 kmh 29.39 in995.3 mb 0.00 in0.0 mm 0.00 in0.0 mm 0.02 in0.5 mm
07:10 PM 49.5°F9.7°C 43.2°F6.2°C 79% 9.3 mph SW15.0 kmh SW 12.1 mph19.5 kmh 29.39 in995.3 mb 0.00 in0.0 mm 0.00 in0.0 mm 0.02 in0.5 mm
07:20 PM 49.6°F9.8°C 43.4°F6.3°C 79% 11.9 mph SW19.2 kmh SW 15.9 mph25.6 kmh 29.40 in995.6 mb 0.00 in0.0 mm 0.00 in0.0 mm 0.02 in0.5 mm
07:30 PM 49.3°F9.6°C 42.7°F5.9°C 78% 10.5 mph SW16.9 kmh SW 13.6 mph21.9 kmh 29.39 in995.3 mb 0.00 in0.0 mm 0.00 in0.0 mm 0.02 in0.5 mm
07:40 PM 48.9°F9.4°C 42.7°F5.9°C 79% 12.0 mph S19.3 kmh S 14.5 mph23.3 kmh 29.39 in995.3 mb 0.00 in0.0 mm 0.00 in0.0 mm 0.02 in0.5 mm
07:50 PM 48.7°F9.3°C 42.9°F6.1°C 80% 11.8 mph SSW19.0 kmh SSW 16.8 mph27.0 kmh 29.40 in995.6 mb 0.00 in0.0 mm 0.00 in0.0 mm 0.02 in0.5 mm
08:00 PM 48.6°F9.2°C 42.7°F5.9°C 80% 13.8 mph SSW22.2 kmh SSW 16.8 mph27.0 kmh 29.40 in995.6 mb 0.00 in0.0 mm 0.00 in0.0 mm 0.02 in0.5 mm
08:10 PM 48.6°F9.2°C 42.7°F5.9°C 80% 12.1 mph S19.5 kmh S 15.9 mph25.6 kmh 29.40 in995.6 mb 0.00 in0.0 mm 0.00 in0.0 mm 0.02 in0.5 mm
08:20 PM 48.6°F9.2°C 42.7°F5.9°C 80% 11.7 mph S18.8 kmh S 14.5 mph23.3 kmh 29.41 in995.9 mb 0.00 in0.0 mm 0.00 in0.0 mm 0.02 in0.5 mm
08:30 PM 48.9°F9.4°C 43.0°F6.1°C 80% 11.4 mph SSW18.3 kmh SSW 13.0 mph20.9 kmh 29.41 in995.9 mb 0.00 in0.0 mm 0.00 in0.0 mm 0.02 in0.5 mm
08:40 PM 48.9°F9.4°C 43.0°F6.1°C 80% 12.4 mph SSW20.0 kmh SSW 17.4 mph28.0 kmh 29.41 in995.9 mb 0.00 in0.0 mm 0.00 in0.0 mm 0.02 in0.5 mm
08:50 PM 49.1°F9.5°C 43.2°F6.2°C 80% 10.7 mph S17.2 kmh S 14.5 mph23.3 kmh 29.41 in995.9 mb 0.00 in0.0 mm 0.00 in0.0 mm 0.02 in0.5 mm
09:00 PM 49.3°F9.6°C 43.4°F6.3°C 80% 12.6 mph SW20.3 kmh SW 16.8 mph27.0 kmh 29.40 in995.6 mb 0.00 in0.0 mm 0.00 in0.0 mm 0.02 in0.5 mm
09:10 PM 49.5°F9.7°C 43.2°F6.2°C 79% 12.2 mph SW19.6 kmh SW 16.8 mph27.0 kmh 29.41 in995.9 mb 0.00 in0.0 mm 0.00 in0.0 mm 0.02 in0.5 mm
09:20 PM 49.5°F9.7°C 43.2°F6.2°C 79% 11.0 mph S17.7 kmh S 18.3 mph29.5 kmh 29.40 in995.6 mb 0.00 in0.0 mm 0.00 in0.0 mm 0.02 in0.5 mm
09:30 PM 49.5°F9.7°C 43.2°F6.2°C 79% 12.8 mph S20.6 kmh S 15.9 mph25.6 kmh 29.41 in995.9 mb 0.00 in0.0 mm 0.00 in0.0 mm 0.02 in0.5 mm
09:40 PM 49.5°F9.7°C 43.2°F6.2°C 79% 11.4 mph SW18.3 kmh SW 15.9 mph25.6 kmh 29.41 in995.9 mb 0.00 in0.0 mm 0.00 in0.0 mm 0.02 in0.5 mm
09:50 PM 49.3°F9.6°C 42.7°F5.9°C 78% 9.9 mph S15.9 kmh S 15.2 mph24.5 kmh 29.41 in995.9 mb 0.00 in0.0 mm 0.00 in0.0 mm 0.02 in0.5 mm
10:00 PM 49.3°F9.6°C 42.7°F5.9°C 78% 10.1 mph SSW16.3 kmh SSW 14.5 mph23.3 kmh 29.41 in995.9 mb 0.00 in0.0 mm 0.00 in0.0 mm 0.02 in0.5 mm
10:10 PM 49.5°F9.7°C 42.9°F6.1°C 78% 11.1 mph S17.9 kmh S 16.8 mph27.0 kmh 29.41 in995.9 mb 0.00 in0.0 mm 0.00 in0.0 mm 0.02 in0.5 mm
10:20 PM 49.5°F9.7°C 42.9°F6.1°C 78% 9.8 mph S15.8 kmh S 13.6 mph21.9 kmh 29.41 in995.9 mb 0.00 in0.0 mm 0.00 in0.0 mm 0.02 in0.5 mm
10:30 PM 49.3°F9.6°C 42.7°F5.9°C 78% 13.0 mph S20.9 kmh S 22.1 mph35.6 kmh 29.41 in995.9 mb 0.00 in0.0 mm 0.00 in0.0 mm 0.02 in0.5 mm
10:40 PM 49.3°F9.6°C 42.7°F5.9°C 78% 11.0 mph S17.7 kmh S 17.4 mph28.0 kmh 29.40 in995.6 mb 0.00 in0.0 mm 0.00 in0.0 mm 0.02 in0.5 mm
10:50 PM 49.5°F9.7°C 42.6°F5.9°C 77% 11.6 mph SW18.7 kmh SW 14.5 mph23.3 kmh 29.41 in995.9 mb 0.00 in0.0 mm 0.00 in0.0 mm 0.02 in0.5 mm
11:00 PM 49.6°F9.8°C 42.7°F5.9°C 77% 11.2 mph SW18.0 kmh SW 17.4 mph28.0 kmh 29.41 in995.9 mb 0.00 in0.0 mm 0.00 in0.0 mm 0.02 in0.5 mm
11:10 PM 49.6°F9.8°C 42.7°F5.9°C 77% 14.1 mph SE22.7 kmh SE 17.4 mph28.0 kmh 29.42 in996.3 mb 0.00 in0.0 mm 0.00 in0.0 mm 0.02 in0.5 mm
11:20 PM 49.6°F9.8°C 43.1°F6.2°C 78% 14.7 mph SSW23.7 kmh SSW 22.1 mph35.6 kmh 29.42 in996.3 mb 0.00 in0.0 mm 0.00 in0.0 mm 0.02 in0.5 mm
11:30 PM 49.6°F9.8°C 43.1°F6.2°C 78% 14.1 mph S22.7 kmh S 18.3 mph29.5 kmh 29.42 in996.3 mb 0.00 in0.0 mm 0.00 in0.0 mm 0.02 in0.5 mm
11:40 PM 49.6°F9.8°C 43.1°F6.2°C 78% 12.1 mph SSW19.5 kmh SSW 14.5 mph23.3 kmh 29.42 in996.3 mb 0.00 in0.0 mm 0.00 in0.0 mm 0.02 in0.5 mm
11:50 PM 49.5°F9.7°C 43.2°F6.2°C 79% 12.0 mph S19.3 kmh S 15.9 mph25.6 kmh 29.41 in995.9 mb 0.00 in0.0 mm 0.00 in0.0 mm 0.02 in0.5 mm